Howell, Michigan
Current Conditions -  °F | °C
As of 6:15 AM on Sunday 21 Dec 2014 (Local Time) from KOZW Reporting Station
Overcast Overcast  
Wind Chill: 27°   Ceiling: 2500
Heat Index: 27°   Visibility: 7mi
Dew Point: 24°   Wind: 0mph
Humidity: 88%   Direction: NA
Pressure: 30.27"   Gusts: NA
Location:  42.61°N, 83.92°W
Report Text: KOZW 211115Z AUTO 00000KT 7SM OVC025 M03/M04 A3027 RMK AO2 T10281045
Loading
Personal Weather Stations






























Interactive Weather Map New forecast layout! Learn more

10-Day Weather Forecast

Advertisements
Track Severe Weather on mobile